Flugplatz Mengeringhausen

Für EDVG sind keine METAR/TAF Berichte vorhanden.
Es werden die Flugwettermeldungen vom Flugplatz Kassel-Calden in 27 km Entfernung angezeigt.

Prognose für EDVK

vom 26.09. um 17:00 UTC

Am 26.09. zwischen 18:00 UTC und 03:00 UTC

Wind 7 kt aus 270°

Sichtweite 10 km oder mehr

aufgelockert bewölkt in 1500 ft

aufgebrochene Bewölkung in 2500 ft


Am 26.09. zwischen 18:00 UTC und 00:00 UTC zeitweise

Regen


Am 26.09. zwischen 18:00 UTC und 00:00 UTC zeitweise mit einer Wahrscheinlichkeit von 30%

Sichtweite 4000 m

Regen

aufgebrochene Bewölkung in 1400 ft


Zwischen 00:00 UTC und 03:00 UTC zeitweise

aufgebrochene Bewölkung in 1400 ft

TAF EDVK 261700Z 2618/2703 27007KT 9999 SCT015 BKN025 TEMPO 2618/2624 RA PROB30 TEMPO 2618/2624 4000 RA BKN014 TEMPO 2700/2703 BKN014
Impressum